createdAt,value
2024-02-29T00:00:27.466Z,10.35
2024-02-29T00:03:34.389Z,10.38
2024-02-29T00:06:40.845Z,10.35
2024-02-29T00:09:50.281Z,10.35
2024-02-29T00:12:56.572Z,10.33
2024-02-29T00:16:03.918Z,10.28
2024-02-29T00:19:09.961Z,10.26
2024-02-29T00:22:16.583Z,10.28
2024-02-29T00:25:25.742Z,10.33
2024-02-29T00:28:32.259Z,10.35
2024-02-29T00:31:38.279Z,10.37
2024-02-29T00:34:45.144Z,10.39
2024-02-29T00:37:51.102Z,10.36
2024-02-29T00:41:00.422Z,10.30
2024-02-29T00:44:06.687Z,10.28
2024-02-29T00:47:15.263Z,10.22
2024-02-29T00:50:21.403Z,10.19
2024-02-29T00:53:28.189Z,10.13
2024-02-29T00:56:36.929Z,10.09
2024-02-29T00:59:44.173Z,10.09
2024-02-29T01:02:50.157Z,10.05
2024-02-29T01:05:57.115Z,10.06
2024-02-29T01:09:03.129Z,10.06
2024-02-29T01:12:12.797Z,10.06
2024-02-29T01:15:20.918Z,9.98
2024-02-29T01:18:27.744Z,9.88
2024-02-29T01:21:33.845Z,9.85
2024-02-29T01:24:40.916Z,9.90
2024-02-29T01:27:49.602Z,9.98
2024-02-29T01:30:56.397Z,10.03
2024-02-29T01:34:02.575Z,10.05
2024-02-29T01:37:09.430Z,10.06
2024-02-29T01:40:19.592Z,10.07
2024-02-29T01:43:30.746Z,10.13
2024-02-29T01:46:36.771Z,10.18
2024-02-29T01:49:44.291Z,10.21
2024-02-29T01:52:50.984Z,10.21
2024-02-29T01:55:58.032Z,10.19
2024-02-29T01:59:08.989Z,10.18
2024-02-29T02:02:16.037Z,10.20
2024-02-29T02:05:22.126Z,10.20
2024-02-29T02:08:31.666Z,10.23
2024-02-29T02:11:37.712Z,10.20
2024-02-29T02:14:47.779Z,10.18
2024-02-29T02:17:53.907Z,10.17
2024-02-29T02:21:03.471Z,10.20
2024-02-29T02:24:09.954Z,10.21
2024-02-29T02:27:16.720Z,10.22
2024-02-29T02:30:22.769Z,10.23
2024-02-29T02:33:29.678Z,10.27
2024-02-29T02:36:38.367Z,10.27
2024-02-29T02:39:45.427Z,10.29
2024-02-29T02:42:51.492Z,10.31
2024-02-29T02:45:58.981Z,10.34
2024-02-29T02:49:05.624Z,10.34
2024-02-29T02:52:15.138Z,10.35
2024-02-29T02:55:21.581Z,10.35
2024-02-29T02:58:28.421Z,10.34
2024-02-29T03:01:35.023Z,10.36
2024-02-29T03:04:41.786Z,10.36
2024-02-29T03:07:50.896Z,10.35
2024-02-29T03:10:58.037Z,10.35
2024-02-29T03:14:04.110Z,10.36
2024-02-29T03:17:10.938Z,10.36
2024-02-29T03:20:17.020Z,10.27
2024-02-29T03:23:26.533Z,10.36
2024-02-29T03:26:32.602Z,10.34
2024-02-29T03:29:39.457Z,10.33
2024-02-29T03:32:45.547Z,10.33
2024-02-29T03:35:52.637Z,10.22
2024-02-29T03:39:01.475Z,10.30
2024-02-29T03:42:08.363Z,10.30
2024-02-29T03:45:14.454Z,10.30
2024-02-29T03:48:21.451Z,10.31
2024-02-29T03:51:27.568Z,10.35
2024-02-29T03:54:37.015Z,10.35
2024-02-29T03:57:43.048Z,10.36
2024-02-29T04:00:50.332Z,10.37
2024-02-29T04:03:56.495Z,10.37
2024-02-29T04:07:03.284Z,10.37
2024-02-29T04:10:13.352Z,10.38
2024-02-29T04:13:21.926Z,10.36
2024-02-29T04:16:28.024Z,10.35
2024-02-29T04:19:34.846Z,10.32
2024-02-29T04:22:40.978Z,10.31
2024-02-29T04:25:50.644Z,10.26
2024-02-29T04:28:56.861Z,10.31
2024-02-29T04:32:08.462Z,10.28
2024-02-29T04:35:14.795Z,10.32
2024-02-29T04:38:21.803Z,10.32
2024-02-29T04:41:30.462Z,10.27
2024-02-29T04:44:37.268Z,10.26
2024-02-29T04:47:44.246Z,10.26
2024-02-29T04:50:51.231Z,10.27
2024-02-29T04:53:57.285Z,10.29
2024-02-29T04:57:06.656Z,10.28
2024-02-29T05:00:14.642Z,10.33
2024-02-29T05:03:22.501Z,10.38
2024-02-29T05:06:29.366Z,10.39
2024-02-29T05:09:36.533Z,10.40
2024-02-29T05:12:50.156Z,10.36
2024-02-29T05:15:56.990Z,10.35
2024-02-29T05:19:03.243Z,10.29
2024-02-29T05:22:10.167Z,10.31
2024-02-29T05:25:16.344Z,10.31
2024-02-29T05:28:25.730Z,10.33
2024-02-29T05:31:32.432Z,10.33
2024-02-29T05:34:39.204Z,10.27
2024-02-29T05:37:45.710Z,10.22
2024-02-29T05:40:52.582Z,10.25
2024-02-29T05:44:01.590Z,10.20
2024-02-29T05:47:09.359Z,10.17
2024-02-29T05:50:15.836Z,10.21
2024-02-29T05:53:22.623Z,10.24
2024-02-29T05:56:28.819Z,10.27
2024-02-29T05:59:38.221Z,10.28
2024-02-29T06:02:44.847Z,10.32
2024-02-29T06:05:51.594Z,10.35
2024-02-29T06:08:57.580Z,10.39
2024-02-29T06:12:04.658Z,10.39
2024-02-29T06:15:14.245Z,10.38
2024-02-29T06:18:21.020Z,10.38
2024-02-29T06:21:27.551Z,10.40
2024-02-29T06:24:34.401Z,10.28
2024-02-29T06:27:41.108Z,10.33
2024-02-29T06:30:51.049Z,10.28
2024-02-29T06:33:57.331Z,10.26
2024-02-29T06:37:04.202Z,10.29
2024-02-29T06:40:14.772Z,10.23
2024-02-29T06:43:21.628Z,10.26
2024-02-29T06:46:30.366Z,10.26
2024-02-29T06:49:37.110Z,10.26
2024-02-29T06:52:43.695Z,10.27
2024-02-29T06:55:50.493Z,10.15
2024-02-29T06:58:56.465Z,10.14
2024-02-29T07:02:06.344Z,10.08
2024-02-29T07:05:12.860Z,10.05
2024-02-29T07:08:19.692Z,10.07
2024-02-29T07:11:27.507Z,10.14
2024-02-29T07:14:34.819Z,10.18
2024-02-29T07:17:43.551Z,10.18
2024-02-29T07:20:50.583Z,10.21
2024-02-29T07:23:56.598Z,10.20
2024-02-29T07:27:04.052Z,10.18
2024-02-29T07:30:12.736Z,10.17
2024-02-29T07:33:22.670Z,10.18
2024-02-29T07:36:30.080Z,10.20
2024-02-29T07:39:36.917Z,10.13
2024-02-29T07:42:43.327Z,10.06
2024-02-29T07:45:50.307Z,10.02
2024-02-29T07:48:58.977Z,10.02
2024-02-29T07:52:06.117Z,10.03
2024-02-29T07:55:15.994Z,10.02
2024-02-29T07:58:22.873Z,9.99
2024-02-29T08:01:28.947Z,10.01
2024-02-29T08:04:38.471Z,10.01
2024-02-29T08:07:48.084Z,9.91
2024-02-29T08:10:54.885Z,9.78
2024-02-29T08:14:00.944Z,9.76
2024-02-29T08:17:08.261Z,9.80
2024-02-29T08:20:21.652Z,9.80
2024-02-29T08:23:28.747Z,9.92
2024-02-29T08:26:34.926Z,9.95
2024-02-29T08:29:41.776Z,10.02
2024-02-29T08:32:50.071Z,10.08
2024-02-29T08:35:59.511Z,10.20
2024-02-29T08:39:06.020Z,10.26
2024-02-29T08:42:12.821Z,10.31
2024-02-29T08:45:20.530Z,10.41
2024-02-29T08:48:28.609Z,10.53
2024-02-29T08:51:37.443Z,10.71
2024-02-29T08:54:43.840Z,10.97
2024-02-29T08:57:49.410Z,11.11
2024-02-29T09:00:55.999Z,11.22
2024-02-29T09:04:03.269Z,11.39
2024-02-29T09:07:12.154Z,11.65
2024-02-29T09:10:18.249Z,11.88
2024-02-29T09:13:30.550Z,12.03
2024-02-29T09:16:40.755Z,12.24
2024-02-29T09:19:47.685Z,12.38
2024-02-29T09:22:56.111Z,12.55
2024-02-29T09:26:04.186Z,12.75
2024-02-29T09:29:09.674Z,13.12
2024-02-29T09:32:15.910Z,13.71
2024-02-29T09:35:21.399Z,14.35
2024-02-29T09:38:30.476Z,15.09
2024-02-29T09:41:58.819Z,15.73
2024-02-29T09:45:02.401Z,16.38
2024-02-29T09:48:11.124Z,16.84
2024-02-29T09:51:24.389Z,17.35
2024-02-29T09:54:38.139Z,17.87
2024-02-29T09:57:45.074Z,18.33
2024-02-29T10:00:51.851Z,18.70
2024-02-29T10:03:59.972Z,19.21
2024-02-29T10:07:05.564Z,19.73
2024-02-29T10:10:18.075Z,20.32
2024-02-29T10:13:23.721Z,20.87
2024-02-29T10:16:30.126Z,21.51
2024-02-29T10:19:38.937Z,22.10
2024-02-29T10:22:49.126Z,22.59
2024-02-29T10:25:59.133Z,23.14
2024-02-29T10:29:07.373Z,23.53
2024-02-29T10:32:13.543Z,23.83
2024-02-29T10:35:24.635Z,24.29
2024-02-29T10:38:30.151Z,24.80
2024-02-29T10:41:42.600Z,25.27
2024-02-29T10:44:51.882Z,25.62
2024-02-29T10:48:12.206Z,25.85
2024-02-29T10:51:31.020Z,26.02
2024-02-29T10:54:56.913Z,26.32
2024-02-29T10:58:16.492Z,26.56
2024-02-29T11:01:23.169Z,26.98
2024-02-29T11:04:29.303Z,27.32
2024-02-29T11:07:36.788Z,27.61
2024-02-29T11:10:42.465Z,27.96
2024-02-29T11:13:51.298Z,28.25
2024-02-29T11:16:59.724Z,28.53
2024-02-29T11:20:10.619Z,28.82
2024-02-29T11:23:17.391Z,29.12
2024-02-29T11:26:33.211Z,29.51
2024-02-29T11:29:41.460Z,29.87
2024-02-29T11:32:47.703Z,30.14
2024-02-29T11:35:55.956Z,30.20
2024-02-29T11:39:03.158Z,30.29
2024-02-29T11:42:09.652Z,30.12
2024-02-29T11:45:25.607Z,30.14
2024-02-29T11:48:31.286Z,30.11
2024-02-29T11:51:37.763Z,30.09
2024-02-29T11:54:43.732Z,30.17
2024-02-29T11:57:50.558Z,30.34
2024-02-29T12:00:58.698Z,30.72
2024-02-29T12:04:06.220Z,30.87
2024-02-29T12:07:12.197Z,30.91
2024-02-29T12:10:19.682Z,30.87
2024-02-29T12:13:25.879Z,30.90
2024-02-29T12:16:34.886Z,30.97
2024-02-29T12:19:43.241Z,31.14
2024-02-29T12:22:50.771Z,31.25
2024-02-29T12:25:56.525Z,31.22
2024-02-29T12:29:03.642Z,31.28
2024-02-29T12:32:13.755Z,31.31
2024-02-29T12:35:21.537Z,31.37
2024-02-29T12:38:28.743Z,30.85
2024-02-29T12:41:35.429Z,30.66
2024-02-29T12:44:41.526Z,30.77
2024-02-29T12:47:50.392Z,30.50
2024-02-29T12:50:56.066Z,30.34
2024-02-29T12:54:02.307Z,30.30
2024-02-29T12:57:11.440Z,30.40
2024-02-29T13:00:25.412Z,30.23
2024-02-29T13:03:33.711Z,29.82
2024-02-29T13:06:40.456Z,29.88
2024-02-29T13:09:47.092Z,29.77
2024-02-29T13:13:00.195Z,29.82
2024-02-29T13:16:11.791Z,29.66
2024-02-29T13:19:20.754Z,29.40
2024-02-29T13:22:26.484Z,29.10
2024-02-29T13:25:33.021Z,28.61
2024-02-29T13:28:39.880Z,28.16
2024-02-29T13:31:46.260Z,27.70
2024-02-29T13:34:55.059Z,27.40
2024-02-29T13:38:04.248Z,27.06
2024-02-29T13:41:11.039Z,26.70
2024-02-29T13:44:17.357Z,26.39
2024-02-29T13:47:22.890Z,26.18
2024-02-29T13:50:31.810Z,26.07
2024-02-29T13:53:37.844Z,26.03
2024-02-29T13:56:44.274Z,26.11
2024-02-29T13:59:50.800Z,26.24
2024-02-29T14:02:57.039Z,26.39
2024-02-29T14:06:05.794Z,26.62
2024-02-29T14:09:12.804Z,26.66
2024-02-29T14:12:18.471Z,26.72
2024-02-29T14:15:24.799Z,26.56
2024-02-29T14:18:31.501Z,26.32
2024-02-29T14:21:40.415Z,26.06
2024-02-29T14:24:49.192Z,25.66
2024-02-29T14:27:56.882Z,25.28
2024-02-29T14:31:02.464Z,24.91
2024-02-29T14:34:10.333Z,24.62
2024-02-29T14:37:19.192Z,24.29
2024-02-29T14:40:26.070Z,24.00
2024-02-29T14:43:31.690Z,23.65
2024-02-29T14:46:38.802Z,23.44
2024-02-29T14:49:44.525Z,23.18
2024-02-29T14:52:53.420Z,22.94
2024-02-29T14:55:59.216Z,22.87
2024-02-29T14:59:05.647Z,22.72
2024-02-29T15:02:12.804Z,22.65
2024-02-29T15:05:19.263Z,22.46
2024-02-29T15:08:27.680Z,22.19
2024-02-29T15:11:34.154Z,21.95
2024-02-29T15:14:40.374Z,21.64
2024-02-29T15:17:47.126Z,21.30
2024-02-29T15:20:53.331Z,21.03
2024-02-29T15:24:06.056Z,20.80
2024-02-29T15:27:11.982Z,20.66
2024-02-29T15:30:18.682Z,20.37
2024-02-29T15:33:24.318Z,20.07
2024-02-29T15:36:30.587Z,19.74
2024-02-29T15:39:38.840Z,19.51
2024-02-29T15:42:45.107Z,19.29
2024-02-29T15:45:50.794Z,19.12
2024-02-29T15:48:57.637Z,18.94
2024-02-29T15:52:04.323Z,18.83
2024-02-29T15:55:13.465Z,18.62
2024-02-29T15:58:19.356Z,18.40
2024-02-29T16:01:26.065Z,18.19
2024-02-29T16:04:32.142Z,17.99
2024-02-29T16:07:38.537Z,17.81
2024-02-29T16:10:48.336Z,17.58
2024-02-29T16:13:56.706Z,17.30
2024-02-29T16:17:03.385Z,17.17
2024-02-29T16:20:11.640Z,17.10
2024-02-29T16:23:18.775Z,17.02
2024-02-29T16:26:27.934Z,16.88
2024-02-29T16:29:33.601Z,16.66
2024-02-29T16:32:41.481Z,16.50
2024-02-29T16:35:48.327Z,16.37
2024-02-29T16:38:54.661Z,16.20
2024-02-29T16:42:02.829Z,16.03
2024-02-29T16:45:10.825Z,15.93
2024-02-29T16:48:16.521Z,15.81
2024-02-29T16:51:22.923Z,15.68
2024-02-29T16:54:28.552Z,15.59
2024-02-29T16:57:37.837Z,15.50
2024-02-29T17:00:43.372Z,15.44
2024-02-29T17:03:49.724Z,15.40
2024-02-29T17:06:55.563Z,15.30
2024-02-29T17:10:03.000Z,15.22
2024-02-29T17:13:11.426Z,15.12
2024-02-29T17:16:18.158Z,14.98
2024-02-29T17:19:23.878Z,14.81
2024-02-29T17:22:30.916Z,14.71
2024-02-29T17:25:36.617Z,14.61
2024-02-29T17:28:45.479Z,14.44
2024-02-29T17:31:51.010Z,14.46
2024-02-29T17:34:57.444Z,14.39
2024-02-29T17:38:03.956Z,14.32
2024-02-29T17:41:10.253Z,14.22
2024-02-29T17:44:20.837Z,14.13
2024-02-29T17:47:27.271Z,14.07
2024-02-29T17:50:32.954Z,13.92
2024-02-29T17:53:39.203Z,13.94
2024-02-29T17:56:47.761Z,13.89
2024-02-29T17:59:59.114Z,13.78
2024-02-29T18:03:04.650Z,13.72
2024-02-29T18:06:12.309Z,13.64
2024-02-29T18:09:18.169Z,13.56
2024-02-29T18:12:24.498Z,13.50
2024-02-29T18:15:32.613Z,13.41
2024-02-29T18:18:39.328Z,13.37
2024-02-29T18:21:47.087Z,13.34
2024-02-29T18:24:54.572Z,13.28
2024-02-29T18:28:00.190Z,13.21
2024-02-29T18:31:09.272Z,13.13
2024-02-29T18:34:14.969Z,13.08
2024-02-29T18:37:21.319Z,12.90
2024-02-29T18:40:27.179Z,12.91
2024-02-29T18:43:33.581Z,12.86
2024-02-29T18:46:43.801Z,12.81
2024-02-29T18:49:50.319Z,12.73
2024-02-29T18:52:56.037Z,12.66
2024-02-29T18:56:02.298Z,12.55
2024-02-29T18:59:07.949Z,12.47
2024-02-29T19:02:17.009Z,12.44
2024-02-29T19:05:22.844Z,12.38
2024-02-29T19:08:29.374Z,12.33
2024-02-29T19:11:34.932Z,12.28
2024-02-29T19:14:41.345Z,12.23
2024-02-29T19:17:49.550Z,12.18
2024-02-29T19:20:55.851Z,12.12
2024-02-29T19:24:01.364Z,12.07
2024-02-29T19:27:10.081Z,12.04
2024-02-29T19:30:18.916Z,11.98
2024-02-29T19:33:28.396Z,11.96
2024-02-29T19:36:34.278Z,11.94
2024-02-29T19:39:44.353Z,11.91
2024-02-29T19:42:50.126Z,11.92
2024-02-29T19:45:56.484Z,11.86
2024-02-29T19:49:04.641Z,11.79
2024-02-29T19:52:11.084Z,11.72
2024-02-29T19:55:16.597Z,11.71
2024-02-29T19:58:22.917Z,11.68
2024-02-29T20:01:28.611Z,11.61
2024-02-29T20:04:37.786Z,11.53
2024-02-29T20:07:44.054Z,11.40
2024-02-29T20:10:50.575Z,11.36
2024-02-29T20:13:56.227Z,11.23
2024-02-29T20:17:04.866Z,11.21
2024-02-29T20:20:15.370Z,11.19
2024-02-29T20:23:22.457Z,11.04
2024-02-29T20:26:28.723Z,11.16
2024-02-29T20:29:35.010Z,11.14
2024-02-29T20:32:41.740Z,11.12
2024-02-29T20:35:50.572Z,11.07
2024-02-29T20:38:56.081Z,10.98
2024-02-29T20:42:02.431Z,11.01
2024-02-29T20:45:09.235Z,11.03
2024-02-29T20:48:18.131Z,11.02
2024-02-29T20:51:26.429Z,10.98
2024-02-29T20:54:32.890Z,10.97
2024-02-29T20:57:39.965Z,10.96
2024-02-29T21:00:46.531Z,10.93
2024-02-29T21:03:52.780Z,10.91
2024-02-29T21:07:01.913Z,10.87
2024-02-29T21:10:08.753Z,10.88
2024-02-29T21:13:15.191Z,10.88
2024-02-29T21:16:20.863Z,10.87
2024-02-29T21:19:27.467Z,10.85
2024-02-29T21:22:36.442Z,10.83
2024-02-29T21:25:42.714Z,10.83
2024-02-29T21:28:50.705Z,10.79
2024-02-29T21:31:57.025Z,10.74
2024-02-29T21:35:02.599Z,10.72
2024-02-29T21:38:11.557Z,10.66
2024-02-29T21:41:17.466Z,10.63
2024-02-29T21:44:26.086Z,10.60
2024-02-29T21:47:31.677Z,10.60
2024-02-29T21:50:38.245Z,10.61
2024-02-29T21:53:46.488Z,10.60
2024-02-29T21:56:54.348Z,10.61
2024-02-29T21:59:59.829Z,10.54
2024-02-29T22:03:06.668Z,10.47
2024-02-29T22:06:15.103Z,10.46
2024-02-29T22:09:25.141Z,10.40
2024-02-29T22:12:30.733Z,10.39
2024-02-29T22:15:37.059Z,10.36
2024-02-29T22:18:42.612Z,10.33
2024-02-29T22:21:48.997Z,10.34
2024-02-29T22:24:57.377Z,10.34
2024-02-29T22:28:03.668Z,10.33
2024-02-29T22:31:09.187Z,10.32
2024-02-29T22:34:15.564Z,10.32
2024-02-29T22:37:21.567Z,10.29
2024-02-29T22:40:30.684Z,10.23
2024-02-29T22:43:36.477Z,10.23
2024-02-29T22:46:42.711Z,10.21
2024-02-29T22:49:48.168Z,10.19
2024-02-29T22:52:57.543Z,10.18
2024-02-29T22:56:05.657Z,10.21
2024-02-29T22:59:11.988Z,10.27
2024-02-29T23:02:17.525Z,10.32
2024-02-29T23:05:23.755Z,10.33
2024-02-29T23:08:30.996Z,10.32
2024-02-29T23:11:42.012Z,10.26
2024-02-29T23:14:51.076Z,10.30
2024-02-29T23:17:57.349Z,10.36
2024-02-29T23:21:03.064Z,10.38
2024-02-29T23:24:11.204Z,10.36
2024-02-29T23:27:19.294Z,10.37
2024-02-29T23:30:26.068Z,10.38
2024-02-29T23:33:32.149Z,10.41
2024-02-29T23:36:38.481Z,10.40
2024-02-29T23:39:44.033Z,10.40
2024-02-29T23:42:53.028Z,10.39
2024-02-29T23:45:59.087Z,10.25
2024-02-29T23:49:05.511Z,10.34
2024-02-29T23:52:11.235Z,10.32
2024-02-29T23:55:17.762Z,10.34
2024-02-29T23:58:25.952Z,10.36
